sensor_id;sensor_type;location;lat;lon;timestamp;pressure;altitude;pressure_sealevel;temperature;humidity
27958;BME280;15295;42.658;23.374;2022-08-01T00:01:54;94516.25;;;25.50;38.15
27958;BME280;15295;42.658;23.374;2022-08-01T00:04:19;94518.50;;;25.46;38.21
27958;BME280;15295;42.658;23.374;2022-08-01T00:06:44;94515.94;;;25.43;38.21
27958;BME280;15295;42.658;23.374;2022-08-01T00:09:10;94516.47;;;25.47;38.20
27958;BME280;15295;42.658;23.374;2022-08-01T00:11:35;94512.38;;;25.42;38.22
27958;BME280;15295;42.658;23.374;2022-08-01T00:14:00;94511.03;;;25.38;38.29
27958;BME280;15295;42.658;23.374;2022-08-01T00:16:25;94516.38;;;25.41;38.37
27958;BME280;15295;42.658;23.374;2022-08-01T00:21:16;94515.94;;;25.43;38.65
27958;BME280;15295;42.658;23.374;2022-08-01T00:26:23;94527.72;;;25.52;37.97
27958;BME280;15295;42.658;23.374;2022-08-01T00:28:48;94533.13;;;25.61;38.09
27958;BME280;15295;42.658;23.374;2022-08-01T00:31:13;94533.94;;;25.67;38.67
27958;BME280;15295;42.658;23.374;2022-08-01T00:33:39;94535.78;;;25.70;39.49
27958;BME280;15295;42.658;23.374;2022-08-01T00:38:44;94534.38;;;25.60;39.97
27958;BME280;15295;42.658;23.374;2022-08-01T00:41:09;94529.06;;;25.62;40.14
27958;BME280;15295;42.658;23.374;2022-08-01T00:43:34;94537.16;;;25.55;40.53
27958;BME280;15295;42.658;23.374;2022-08-01T00:46:05;94535.84;;;25.50;40.71
27958;BME280;15295;42.658;23.374;2022-08-01T00:48:30;94530.88;;;25.40;40.79
27958;BME280;15295;42.658;23.374;2022-08-01T00:50:56;94530.00;;;25.28;41.06
27958;BME280;15295;42.658;23.374;2022-08-01T00:53:21;94530.19;;;25.19;41.40
27958;BME280;15295;42.658;23.374;2022-08-01T00:55:49;94525.97;;;25.09;41.35
27958;BME280;15295;42.658;23.374;2022-08-01T00:58:14;94525.97;;;25.09;41.46
27958;BME280;15295;42.658;23.374;2022-08-01T01:00:39;94520.00;;;24.96;41.74
27958;BME280;15295;42.658;23.374;2022-08-01T01:03:04;94514.06;;;24.88;42.05
27958;BME280;15295;42.658;23.374;2022-08-01T01:05:31;94511.97;;;24.83;42.20
27958;BME280;15295;42.658;23.374;2022-08-01T01:07:59;94506.09;;;24.81;42.41
27958;BME280;15295;42.658;23.374;2022-08-01T01:12:55;94505.06;;;24.79;42.38
27958;BME280;15295;42.658;23.374;2022-08-01T01:15:39;94510.91;;;24.81;42.35
27958;BME280;15295;42.658;23.374;2022-08-01T01:18:14;94506.22;;;24.72;42.58
27958;BME280;15295;42.658;23.374;2022-08-01T01:20:42;94499.88;;;24.72;42.62
27958;BME280;15295;42.658;23.374;2022-08-01T01:30:46;94496.31;;;24.71;42.29
27958;BME280;15295;42.658;23.374;2022-08-01T01:33:13;94491.63;;;24.63;42.54
27958;BME280;15295;42.658;23.374;2022-08-01T01:35:41;94492.34;;;24.58;43.05
27958;BME280;15295;42.658;23.374;2022-08-01T01:38:09;94483.41;;;24.53;43.10
27958;BME280;15295;42.658;23.374;2022-08-01T01:40:35;94483.53;;;24.44;43.74
27958;BME280;15295;42.658;23.374;2022-08-01T01:43:02;94481.31;;;24.48;43.63
27958;BME280;15295;42.658;23.374;2022-08-01T01:45:27;94480.00;;;24.44;43.90
27958;BME280;15295;42.658;23.374;2022-08-01T01:47:57;94480.47;;;24.42;43.83
27958;BME280;15295;42.658;23.374;2022-08-01T01:50:24;94480.56;;;24.48;44.07
27958;BME280;15295;42.658;23.374;2022-08-01T01:52:50;94480.06;;;24.49;43.63
27958;BME280;15295;42.658;23.374;2022-08-01T01:55:16;94484.03;;;24.43;43.86
27958;BME280;15295;42.658;23.374;2022-08-01T01:57:51;94478.22;;;24.46;43.63
27958;BME280;15295;42.658;23.374;2022-08-01T02:00:17;94463.69;;;24.42;43.59
27958;BME280;15295;42.658;23.374;2022-08-01T02:02:43;94476.97;;;24.47;43.42
27958;BME280;15295;42.658;23.374;2022-08-01T02:05:10;94466.63;;;24.53;43.36
27958;BME280;15295;42.658;23.374;2022-08-01T02:07:38;94464.13;;;24.56;42.58
27958;BME280;15295;42.658;23.374;2022-08-01T02:10:04;94464.13;;;24.56;42.39
27958;BME280;15295;42.658;23.374;2022-08-01T02:12:32;94458.53;;;24.56;42.36
27958;BME280;15295;42.658;23.374;2022-08-01T02:14:57;94468.72;;;24.59;42.57
27958;BME280;15295;42.658;23.374;2022-08-01T02:17:24;94469.28;;;24.63;41.76
27958;BME280;15295;42.658;23.374;2022-08-01T02:19:50;94464.25;;;24.67;41.26
27958;BME280;15295;42.658;23.374;2022-08-01T02:24:59;94468.16;;;24.75;41.07
27958;BME280;15295;42.658;23.374;2022-08-01T02:27:31;94468.66;;;24.73;40.60
27958;BME280;15295;42.658;23.374;2022-08-01T02:30:03;94457.25;;;24.77;41.76
27958;BME280;15295;42.658;23.374;2022-08-01T02:32:52;94465.38;;;24.75;41.81
27958;BME280;15295;42.658;23.374;2022-08-01T02:35:28;94471.59;;;24.84;41.81
27958;BME280;15295;42.658;23.374;2022-08-01T02:37:55;94466.78;;;24.85;41.18
27958;BME280;15295;42.658;23.374;2022-08-01T02:40:22;94471.78;;;24.81;40.66
27958;BME280;15295;42.658;23.374;2022-08-01T02:42:49;94476.75;;;24.71;41.49
27958;BME280;15295;42.658;23.374;2022-08-01T02:45:15;94463.34;;;24.55;41.86
27958;BME280;15295;42.658;23.374;2022-08-01T02:47:55;94465.13;;;24.52;42.38
27958;BME280;15295;42.658;23.374;2022-08-01T02:50:22;94470.25;;;24.60;42.01
27958;BME280;15295;42.658;23.374;2022-08-01T02:52:49;94466.22;;;24.61;42.06
27958;BME280;15295;42.658;23.374;2022-08-01T02:55:17;94461.59;;;24.58;41.96
27958;BME280;15295;42.658;23.374;2022-08-01T02:57:44;94465.44;;;24.60;42.22
27958;BME280;15295;42.658;23.374;2022-08-01T03:00:11;94467.97;;;24.58;41.99
27958;BME280;15295;42.658;23.374;2022-08-01T03:02:36;94457.75;;;24.55;41.92
27958;BME280;15295;42.658;23.374;2022-08-01T03:05:02;94463.97;;;24.65;41.84
27958;BME280;15295;42.658;23.374;2022-08-01T03:07:29;94469.84;;;24.67;41.84
27958;BME280;15295;42.658;23.374;2022-08-01T03:09:55;94465.38;;;24.75;41.70
27958;BME280;15295;42.658;23.374;2022-08-01T03:12:22;94469.41;;;24.74;41.46
27958;BME280;15295;42.658;23.374;2022-08-01T03:14:50;94473.13;;;24.65;41.52
27958;BME280;15295;42.658;23.374;2022-08-01T03:17:16;94471.03;;;24.60;41.75
27958;BME280;15295;42.658;23.374;2022-08-01T03:19:43;94461.41;;;24.61;41.84
27958;BME280;15295;42.658;23.374;2022-08-01T03:22:11;94462.25;;;24.47;41.82
27958;BME280;15295;42.658;23.374;2022-08-01T03:24:37;94469.78;;;24.41;42.18
27958;BME280;15295;42.658;23.374;2022-08-01T03:29:36;94467.91;;;24.32;42.49
27958;BME280;15295;42.658;23.374;2022-08-01T03:32:02;94469.84;;;24.26;42.34
27958;BME280;15295;42.658;23.374;2022-08-01T03:34:28;94473.16;;;24.25;42.14
27958;BME280;15295;42.658;23.374;2022-08-01T03:39:21;94472.78;;;24.17;42.95
27958;BME280;15295;42.658;23.374;2022-08-01T03:41:56;94460.78;;;24.31;42.69
27958;BME280;15295;42.658;23.374;2022-08-01T03:44:24;94468.53;;;24.42;42.46
27958;BME280;15295;42.658;23.374;2022-08-01T03:47:00;94482.63;;;24.53;42.16
27958;BME280;15295;42.658;23.374;2022-08-01T03:49:28;94483.53;;;24.65;41.70
27958;BME280;15295;42.658;23.374;2022-08-01T03:51:54;94483.38;;;24.74;41.21
27958;BME280;15295;42.658;23.374;2022-08-01T03:54:21;94482.97;;;24.81;40.84
27958;BME280;15295;42.658;23.374;2022-08-01T03:56:49;94480.59;;;24.74;40.91
27958;BME280;15295;42.658;23.374;2022-08-01T03:59:15;94479.28;;;24.69;40.66
27958;BME280;15295;42.658;23.374;2022-08-01T04:01:41;94473.22;;;24.50;40.08
27958;BME280;15295;42.658;23.374;2022-08-01T04:04:08;94472.84;;;24.43;39.55
27958;BME280;15295;42.658;23.374;2022-08-01T04:06:33;94477.47;;;24.46;40.45
27958;BME280;15295;42.658;23.374;2022-08-01T04:11:30;94487.72;;;24.34;39.35
27958;BME280;15295;42.658;23.374;2022-08-01T04:13:55;94477.59;;;24.37;39.29
27958;BME280;15295;42.658;23.374;2022-08-01T04:16:22;94482.69;;;24.38;39.23
27958;BME280;15295;42.658;23.374;2022-08-01T04:18:49;94477.06;;;24.33;39.18
27958;BME280;15295;42.658;23.374;2022-08-01T04:21:14;94480.81;;;24.30;39.18
27958;BME280;15295;42.658;23.374;2022-08-01T04:23:43;94484.59;;;24.27;39.38
27958;BME280;15295;42.658;23.374;2022-08-01T04:26:09;94479.97;;;24.24;39.51
27958;BME280;15295;42.658;23.374;2022-08-01T04:28:36;94478.16;;;24.41;40.87
27958;BME280;15295;42.658;23.374;2022-08-01T04:31:02;94487.31;;;24.82;41.71
27958;BME280;15295;42.658;23.374;2022-08-01T04:33:30;94481.63;;;24.96;39.78
27958;BME280;15295;42.658;23.374;2022-08-01T04:38:22;94483.06;;;25.12;40.00
27958;BME280;15295;42.658;23.374;2022-08-01T04:40:52;94483.75;;;25.33;39.76
27958;BME280;15295;42.658;23.374;2022-08-01T04:43:17;94472.97;;;25.46;39.26
27958;BME280;15295;42.658;23.374;2022-08-01T04:45:47;94469.91;;;25.44;39.09
27958;BME280;15295;42.658;23.374;2022-08-01T04:48:13;94486.53;;;25.58;39.26
27958;BME280;15295;42.658;23.374;2022-08-01T04:50:46;94477.97;;;25.67;39.40
27958;BME280;15295;42.658;23.374;2022-08-01T04:53:13;94489.25;;;25.78;39.20
27958;BME280;15295;42.658;23.374;2022-08-01T04:55:38;94488.59;;;25.94;39.03
27958;BME280;15295;42.658;23.374;2022-08-01T04:58:03;94486.75;;;26.17;38.95
27958;BME280;15295;42.658;23.374;2022-08-01T05:00:29;94480.72;;;26.35;38.24
27958;BME280;15295;42.658;23.374;2022-08-01T05:02:54;94474.91;;;26.50;38.35
27958;BME280;15295;42.658;23.374;2022-08-01T05:05:19;94479.53;;;26.58;38.15
27958;BME280;15295;42.658;23.374;2022-08-01T05:07:45;94473.28;;;26.74;38.30
27958;BME280;15295;42.658;23.374;2022-08-01T05:10:11;94480.47;;;26.98;38.21
27958;BME280;15295;42.658;23.374;2022-08-01T05:15:11;94474.22;;;27.41;37.25
27958;BME280;15295;42.658;23.374;2022-08-01T05:20:05;94469.09;;;27.90;36.74
27958;BME280;15295;42.658;23.374;2022-08-01T05:22:31;94472.91;;;28.20;36.42
27958;BME280;15295;42.658;23.374;2022-08-01T05:24:56;94469.03;;;28.34;35.41
27958;BME280;15295;42.658;23.374;2022-08-01T05:27:22;94475.63;;;28.42;34.78
27958;BME280;15295;42.658;23.374;2022-08-01T05:29:47;94460.34;;;28.38;34.81
27958;BME280;15295;42.658;23.374;2022-08-01T05:32:13;94467.22;;;28.48;33.59
27958;BME280;15295;42.658;23.374;2022-08-01T05:34:38;94473.09;;;28.44;34.23
27958;BME280;15295;42.658;23.374;2022-08-01T05:37:03;94462.41;;;28.26;32.63
27958;BME280;15295;42.658;23.374;2022-08-01T05:39:38;94466.50;;;28.25;34.62
27958;BME280;15295;42.658;23.374;2022-08-01T05:42:06;94472.06;;;28.58;33.73
27958;BME280;15295;42.658;23.374;2022-08-01T05:44:31;94475.03;;;28.77;33.06
27958;BME280;15295;42.658;23.374;2022-08-01T05:47:05;94471.97;;;28.80;31.99
27958;BME280;15295;42.658;23.374;2022-08-01T05:49:35;94468.41;;;28.74;31.89
27958;BME280;15295;42.658;23.374;2022-08-01T05:52:00;94471.00;;;28.67;31.86
27958;BME280;15295;42.658;23.374;2022-08-01T05:54:26;94480.69;;;28.66;32.01
27958;BME280;15295;42.658;23.374;2022-08-01T05:56:52;94482.78;;;28.65;32.00
27958;BME280;15295;42.658;23.374;2022-08-01T05:59:17;94479.63;;;28.74;32.08
27958;BME280;15295;42.658;23.374;2022-08-01T06:01:42;94481.63;;;28.90;32.07
27958;BME280;15295;42.658;23.374;2022-08-01T06:06:33;94472.31;;;29.12;29.93
27958;BME280;15295;42.658;23.374;2022-08-01T06:08:58;94480.13;;;28.84;30.19
27958;BME280;15295;42.658;23.374;2022-08-01T06:11:26;94473.28;;;28.68;30.54
27958;BME280;15295;42.658;23.374;2022-08-01T06:13:52;94471.28;;;28.63;30.81
27958;BME280;15295;42.658;23.374;2022-08-01T06:16:27;94474.59;;;28.67;30.87
27958;BME280;15295;42.658;23.374;2022-08-01T06:18:52;94490.19;;;28.63;29.76
27958;BME280;15295;42.658;23.374;2022-08-01T06:21:17;94482.78;;;28.54;29.40
27958;BME280;15295;42.658;23.374;2022-08-01T06:23:43;94479.47;;;28.45;29.07
27958;BME280;15295;42.658;23.374;2022-08-01T06:26:16;94485.41;;;28.30;29.47
27958;BME280;15295;42.658;23.374;2022-08-01T06:28:52;94484.41;;;28.16;29.68
27958;BME280;15295;42.658;23.374;2022-08-01T06:31:17;94475.97;;;28.22;29.91
27958;BME280;15295;42.658;23.374;2022-08-01T06:33:43;94479.81;;;28.13;29.68
27958;BME280;15295;42.658;23.374;2022-08-01T06:36:08;94477.78;;;28.14;29.86
27958;BME280;15295;42.658;23.374;2022-08-01T06:41:03;94480.75;;;28.49;29.66
27958;BME280;15295;42.658;23.374;2022-08-01T06:43:28;94471.78;;;28.56;29.05
27958;BME280;15295;42.658;23.374;2022-08-01T06:45:53;94461.31;;;28.51;29.17
27958;BME280;15295;42.658;23.374;2022-08-01T06:48:19;94462.56;;;28.56;29.65
27958;BME280;15295;42.658;23.374;2022-08-01T06:50:52;94460.53;;;28.51;29.16
27958;BME280;15295;42.658;23.374;2022-08-01T06:53:32;94463.88;;;28.49;29.73
27958;BME280;15295;42.658;23.374;2022-08-01T06:55:58;94450.63;;;28.44;29.58
27958;BME280;15295;42.658;23.374;2022-08-01T06:58:23;94451.84;;;28.49;29.53
27958;BME280;15295;42.658;23.374;2022-08-01T07:00:48;94449.03;;;28.54;29.49
27958;BME280;15295;42.658;23.374;2022-08-01T07:03:16;94443.41;;;28.65;29.56
27958;BME280;15295;42.658;23.374;2022-08-01T07:05:41;94446.47;;;28.62;29.49
27958;BME280;15295;42.658;23.374;2022-08-01T07:08:06;94447.28;;;28.57;29.38
27958;BME280;15295;42.658;23.374;2022-08-01T07:10:33;94428.59;;;28.59;29.92
27958;BME280;15295;42.658;23.374;2022-08-01T07:12:58;94448.78;;;28.58;29.84
27958;BME280;15295;42.658;23.374;2022-08-01T07:15:23;94441.38;;;28.55;29.71
27958;BME280;15295;42.658;23.374;2022-08-01T07:17:51;94441.63;;;28.62;30.24
27958;BME280;15295;42.658;23.374;2022-08-01T07:20:24;94441.84;;;28.64;30.20
27958;BME280;15295;42.658;23.374;2022-08-01T07:22:50;94450.06;;;28.62;30.41
27958;BME280;15295;42.658;23.374;2022-08-01T07:25:15;94430.63;;;28.64;30.01
27958;BME280;15295;42.658;23.374;2022-08-01T07:27:53;94457.47;;;28.65;30.25
27958;BME280;15295;42.658;23.374;2022-08-01T07:30:22;94438.81;;;28.62;30.33
27958;BME280;15295;42.658;23.374;2022-08-01T07:32:51;94451.22;;;28.89;30.38
27958;BME280;15295;42.658;23.374;2022-08-01T07:35:16;94448.50;;;29.13;29.74
27958;BME280;15295;42.658;23.374;2022-08-01T07:37:41;94457.91;;;29.27;29.20
27958;BME280;15295;42.658;23.374;2022-08-01T07:43:03;94441.50;;;29.31;29.68
27958;BME280;15295;42.658;23.374;2022-08-01T07:45:29;94455.06;;;29.62;28.97
27958;BME280;15295;42.658;23.374;2022-08-01T07:48:02;94455.50;;;29.77;28.95
27958;BME280;15295;42.658;23.374;2022-08-01T07:50:33;94460.38;;;29.77;28.91
27958;BME280;15295;42.658;23.374;2022-08-01T07:52:59;94463.34;;;29.90;28.02
27958;BME280;15295;42.658;23.374;2022-08-01T07:55:24;94455.22;;;29.81;28.00
27958;BME280;15295;42.658;23.374;2022-08-01T07:57:49;94458.75;;;29.87;27.77
27958;BME280;15295;42.658;23.374;2022-08-01T08:00:15;94453.41;;;29.83;28.44
27958;BME280;15295;42.658;23.374;2022-08-01T08:02:40;94452.72;;;30.01;28.11
27958;BME280;15295;42.658;23.374;2022-08-01T08:05:06;94461.88;;;30.07;28.42
27958;BME280;15295;42.658;23.374;2022-08-01T08:07:32;94464.00;;;30.01;28.75
27958;BME280;15295;42.658;23.374;2022-08-01T08:09:57;94460.03;;;30.15;27.70
27958;BME280;15295;42.658;23.374;2022-08-01T08:12:24;94458.59;;;30.03;28.29
27958;BME280;15295;42.658;23.374;2022-08-01T08:14:50;94456.25;;;30.07;28.36
27958;BME280;15295;42.658;23.374;2022-08-01T08:17:15;94454.50;;;30.04;28.28
27958;BME280;15295;42.658;23.374;2022-08-01T08:22:24;94460.28;;;30.12;28.50
27958;BME280;15295;42.658;23.374;2022-08-01T08:24:56;94463.66;;;30.10;28.19
27958;BME280;15295;42.658;23.374;2022-08-01T08:27:24;94449.44;;;30.21;28.02
27958;BME280;15295;42.658;23.374;2022-08-01T08:29:49;94453.75;;;30.28;27.86
27958;BME280;15295;42.658;23.374;2022-08-01T08:32:15;94461.44;;;30.27;27.54
27958;BME280;15295;42.658;23.374;2022-08-01T08:34:40;94455.25;;;30.34;28.04
27958;BME280;15295;42.658;23.374;2022-08-01T08:37:05;94456.72;;;30.41;27.76
27958;BME280;15295;42.658;23.374;2022-08-01T08:42:35;94466.88;;;30.50;27.35
27958;BME280;15295;42.658;23.374;2022-08-01T08:45:19;94467.09;;;30.52;27.73
27958;BME280;15295;42.658;23.374;2022-08-01T08:47:45;94475.63;;;30.65;26.93
27958;BME280;15295;42.658;23.374;2022-08-01T08:50:11;94453.88;;;30.84;26.62
27958;BME280;15295;42.658;23.374;2022-08-01T08:52:37;94466.66;;;31.09;26.43
27958;BME280;15295;42.658;23.374;2022-08-01T08:55:04;94462.59;;;31.04;26.51
27958;BME280;15295;42.658;23.374;2022-08-01T08:57:30;94459.69;;;31.10;25.83
27958;BME280;15295;42.658;23.374;2022-08-01T08:59:56;94459.31;;;31.19;25.33
27958;BME280;15295;42.658;23.374;2022-08-01T09:02:23;94457.50;;;31.21;25.75
27958;BME280;15295;42.658;23.374;2022-08-01T09:05:03;94460.25;;;31.46;25.18
27958;BME280;15295;42.658;23.374;2022-08-01T09:07:29;94443.22;;;31.51;24.88
27958;BME280;15295;42.658;23.374;2022-08-01T09:12:38;94459.47;;;31.45;25.70
27958;BME280;15295;42.658;23.374;2022-08-01T09:15:03;94444.66;;;31.39;25.38
27958;BME280;15295;42.658;23.374;2022-08-01T09:17:38;94443.06;;;31.25;25.24
27958;BME280;15295;42.658;23.374;2022-08-01T09:20:08;94428.03;;;31.17;25.55
27958;BME280;15295;42.658;23.374;2022-08-01T09:22:48;94437.13;;;31.10;25.52
27958;BME280;15295;42.658;23.374;2022-08-01T09:25:13;94443.97;;;31.14;25.35
27958;BME280;15295;42.658;23.374;2022-08-01T09:27:38;94438.34;;;31.14;25.24
27958;BME280;15295;42.658;23.374;2022-08-01T09:30:09;94446.56;;;31.31;25.59
27958;BME280;15295;42.658;23.374;2022-08-01T09:32:54;94438.09;;;31.50;25.32
27958;BME280;15295;42.658;23.374;2022-08-01T09:35:27;94450.19;;;31.63;24.74
27958;BME280;15295;42.658;23.374;2022-08-01T09:37:57;94444.72;;;31.52;24.51
27958;BME280;15295;42.658;23.374;2022-08-01T09:43:19;94435.56;;;31.78;24.29
27958;BME280;15295;42.658;23.374;2022-08-01T09:45:50;94424.28;;;31.91;24.06
27958;BME280;15295;42.658;23.374;2022-08-01T09:48:19;94433.19;;;32.14;24.05
27958;BME280;15295;42.658;23.374;2022-08-01T09:53:26;94430.22;;;32.06;23.85
27958;BME280;15295;42.658;23.374;2022-08-01T09:55:51;94423.38;;;32.02;24.39
27958;BME280;15295;42.658;23.374;2022-08-01T09:58:19;94422.88;;;32.16;24.50
27958;BME280;15295;42.658;23.374;2022-08-01T10:03:24;94425.38;;;32.46;24.38
27958;BME280;15295;42.658;23.374;2022-08-01T10:08:15;94419.97;;;32.61;25.15
27958;BME280;15295;42.658;23.374;2022-08-01T10:10:41;94430.38;;;32.40;23.92
27958;BME280;15295;42.658;23.374;2022-08-01T10:15:48;94418.44;;;32.47;24.25
27958;BME280;15295;42.658;23.374;2022-08-01T10:18:13;94428.44;;;32.61;24.10
27958;BME280;15295;42.658;23.374;2022-08-01T10:20:39;94410.78;;;32.68;24.08
27958;BME280;15295;42.658;23.374;2022-08-01T10:25:37;94409.13;;;32.86;23.42
27958;BME280;15295;42.658;23.374;2022-08-01T10:28:23;94424.28;;;32.88;23.42
27958;BME280;15295;42.658;23.374;2022-08-01T10:30:50;94419.47;;;32.83;23.45
27958;BME280;15295;42.658;23.374;2022-08-01T10:35:40;94414.28;;;32.74;23.99
27958;BME280;15295;42.658;23.374;2022-08-01T10:38:06;94413.09;;;32.69;24.14
27958;BME280;15295;42.658;23.374;2022-08-01T10:43:03;94406.63;;;32.95;24.26
27958;BME280;15295;42.658;23.374;2022-08-01T10:45:29;94406.38;;;33.06;24.19
27958;BME280;15295;42.658;23.374;2022-08-01T10:50:35;94404.88;;;33.05;24.50
27958;BME280;15295;42.658;23.374;2022-08-01T10:53:12;94409.66;;;32.97;24.57
27958;BME280;15295;42.658;23.374;2022-08-01T10:55:45;94401.06;;;33.03;23.93
27958;BME280;15295;42.658;23.374;2022-08-01T10:58:12;94401.25;;;33.18;24.34
27958;BME280;15295;42.658;23.374;2022-08-01T11:00:38;94395.59;;;33.18;23.50
27958;BME280;15295;42.658;23.374;2022-08-01T11:03:06;94401.16;;;33.10;24.05
27958;BME280;15295;42.658;23.374;2022-08-01T11:05:37;94401.38;;;33.12;23.63
27958;BME280;15295;42.658;23.374;2022-08-01T11:08:10;94398.59;;;32.99;23.92
27958;BME280;15295;42.658;23.374;2022-08-01T11:10:37;94386.81;;;32.95;24.42
27958;BME280;15295;42.658;23.374;2022-08-01T11:13:03;94383.66;;;32.99;24.39
27958;BME280;15295;42.658;23.374;2022-08-01T11:15:32;94396.59;;;33.07;24.02
27958;BME280;15295;42.658;23.374;2022-08-01T11:17:58;94385.28;;;32.94;24.18
27958;BME280;15295;42.658;23.374;2022-08-01T11:20:25;94388.53;;;32.98;24.09
27958;BME280;15295;42.658;23.374;2022-08-01T11:30:54;94378.97;;;33.01;23.91
27958;BME280;15295;42.658;23.374;2022-08-01T11:39:10;94378.31;;;32.95;24.51
27958;BME280;15295;42.658;23.374;2022-08-01T11:41:34;94376.38;;;32.90;23.90
27958;BME280;15295;42.658;23.374;2022-08-01T11:54:34;94378.31;;;33.08;24.15
27958;BME280;15295;42.658;23.374;2022-08-01T11:57:01;94379.53;;;33.00;24.15
27958;BME280;15295;42.658;23.374;2022-08-01T11:59:27;94379.41;;;32.92;24.38
27958;BME280;15295;42.658;23.374;2022-08-01T12:01:55;94375.50;;;32.82;24.55
27958;BME280;15295;42.658;23.374;2022-08-01T12:04:22;94375.06;;;32.91;24.62
27958;BME280;15295;42.658;23.374;2022-08-01T12:06:47;94378.31;;;32.95;24.60
27958;BME280;15295;42.658;23.374;2022-08-01T12:12:09;94372.53;;;33.01;24.68
27958;BME280;15295;42.658;23.374;2022-08-01T12:14:34;94367.06;;;33.16;24.34
27958;BME280;15295;42.658;23.374;2022-08-01T12:17:12;94375.16;;;33.32;24.34
27958;BME280;15295;42.658;23.374;2022-08-01T12:19:37;94378.25;;;33.21;24.51
27958;BME280;15295;42.658;23.374;2022-08-01T12:22:10;94373.34;;;33.22;24.58
27958;BME280;15295;42.658;23.374;2022-08-01T12:24:38;94370.31;;;33.20;24.64
27958;BME280;15295;42.658;23.374;2022-08-01T12:27:04;94366.44;;;33.30;24.39
27958;BME280;15295;42.658;23.374;2022-08-01T12:32:00;94368.72;;;33.32;24.64
27958;BME280;15295;42.658;23.374;2022-08-01T12:34:32;94373.91;;;33.41;24.03
27958;BME280;15295;42.658;23.374;2022-08-01T12:37:00;94368.59;;;33.37;23.98
27958;BME280;15295;42.658;23.374;2022-08-01T12:39:29;94369.00;;;33.21;24.20
27958;BME280;15295;42.658;23.374;2022-08-01T12:42:04;94364.56;;;33.12;24.42
27958;BME280;15295;42.658;23.374;2022-08-01T12:44:31;94357.16;;;33.09;24.39
27958;BME280;15295;42.658;23.374;2022-08-01T12:46:57;94371.78;;;33.00;24.72
27958;BME280;15295;42.658;23.374;2022-08-01T12:49:22;94364.56;;;33.12;24.23
27958;BME280;15295;42.658;23.374;2022-08-01T12:51:48;94359.38;;;33.24;23.71
27958;BME280;15295;42.658;23.374;2022-08-01T12:54:22;94350.97;;;33.31;24.03
27958;BME280;15295;42.658;23.374;2022-08-01T12:56:53;94367.91;;;33.44;24.30
27958;BME280;15295;42.658;23.374;2022-08-01T12:59:31;94375.25;;;33.61;23.88
27958;BME280;15295;42.658;23.374;2022-08-01T13:02:07;94361.31;;;33.63;23.68
27958;BME280;15295;42.658;23.374;2022-08-01T13:07:21;94352.53;;;33.53;23.90
27958;BME280;15295;42.658;23.374;2022-08-01T13:09:52;94356.22;;;33.48;24.39
27958;BME280;15295;42.658;23.374;2022-08-01T13:12:23;94356.03;;;33.46;24.07
27958;BME280;15295;42.658;23.374;2022-08-01T13:14:50;94356.38;;;33.42;24.47
27958;BME280;15295;42.658;23.374;2022-08-01T13:17:34;94352.78;;;33.42;23.90
27958;BME280;15295;42.658;23.374;2022-08-01T13:20:09;94352.28;;;33.30;24.43
27958;BME280;15295;42.658;23.374;2022-08-01T13:22:38;94342.75;;;33.20;24.77
27958;BME280;15295;42.658;23.374;2022-08-01T13:27:28;94344.81;;;33.20;24.70
27958;BME280;15295;42.658;23.374;2022-08-01T13:29:54;94351.50;;;33.09;25.00
27958;BME280;15295;42.658;23.374;2022-08-01T13:32:34;94347.06;;;33.01;24.95
27958;BME280;15295;42.658;23.374;2022-08-01T13:35:08;94336.16;;;33.05;25.12
27958;BME280;15295;42.658;23.374;2022-08-01T13:37:34;94337.91;;;33.08;24.99
27958;BME280;15295;42.658;23.374;2022-08-01T13:39:59;94330.38;;;33.10;24.90
27958;BME280;15295;42.658;23.374;2022-08-01T13:42:24;94332.47;;;32.97;25.02
27958;BME280;15295;42.658;23.374;2022-08-01T13:44:50;94337.16;;;32.94;25.50
27958;BME280;15295;42.658;23.374;2022-08-01T13:47:15;94330.84;;;33.01;24.93
27958;BME280;15295;42.658;23.374;2022-08-01T13:49:40;94326.16;;;33.04;25.47
27958;BME280;15295;42.658;23.374;2022-08-01T13:52:06;94330.50;;;33.05;25.43
27958;BME280;15295;42.658;23.374;2022-08-01T13:54:31;94322.50;;;33.16;24.96
27958;BME280;15295;42.658;23.374;2022-08-01T13:57:03;94329.88;;;33.19;24.93
27958;BME280;15295;42.658;23.374;2022-08-01T14:07:27;94333.75;;;32.96;25.27
27958;BME280;15295;42.658;23.374;2022-08-01T14:09:52;94330.28;;;33.03;25.13
27958;BME280;15295;42.658;23.374;2022-08-01T14:12:17;94324.28;;;33.06;25.21
27958;BME280;15295;42.658;23.374;2022-08-01T14:14:43;94326.44;;;33.13;25.48
27958;BME280;15295;42.658;23.374;2022-08-01T14:19:50;94313.75;;;33.27;25.08
27958;BME280;15295;42.658;23.374;2022-08-01T14:22:15;94314.38;;;33.33;25.00
27958;BME280;15295;42.658;23.374;2022-08-01T14:24:40;94322.50;;;33.37;24.82
27958;BME280;15295;42.658;23.374;2022-08-01T14:27:06;94330.94;;;33.29;24.93
27958;BME280;15295;42.658;23.374;2022-08-01T14:29:31;94327.00;;;33.32;25.05
27958;BME280;15295;42.658;23.374;2022-08-01T14:31:59;94327.47;;;33.23;25.05
27958;BME280;15295;42.658;23.374;2022-08-01T14:34:24;94329.16;;;33.19;25.68
27958;BME280;15295;42.658;23.374;2022-08-01T14:36:50;94324.63;;;33.23;25.32
27958;BME280;15295;42.658;23.374;2022-08-01T14:39:16;94328.63;;;33.07;25.25
27958;BME280;15295;42.658;23.374;2022-08-01T14:41:42;94347.41;;;32.84;25.27
27958;BME280;15295;42.658;23.374;2022-08-01T14:44:07;94326.78;;;32.76;25.84
27958;BME280;15295;42.658;23.374;2022-08-01T14:46:34;94337.31;;;32.76;26.21
27958;BME280;15295;42.658;23.374;2022-08-01T14:49:09;94329.84;;;32.65;25.85
27958;BME280;15295;42.658;23.374;2022-08-01T14:51:35;94330.41;;;32.50;26.41
27958;BME280;15295;42.658;23.374;2022-08-01T14:54:04;94334.22;;;32.40;26.03